createdAt,value
2018-02-20T00:01:02.328Z,67.55
2018-02-20T00:03:31.126Z,67.26
2018-02-20T00:05:59.917Z,67.79
2018-02-20T00:08:29.088Z,67.66
2018-02-20T00:10:57.899Z,67.77
2018-02-20T00:13:26.756Z,67.67
2018-02-20T00:15:55.663Z,67.72
2018-02-20T00:18:24.452Z,68.12
2018-02-20T00:20:53.326Z,67.59
2018-02-20T00:23:22.208Z,67.73
2018-02-20T00:25:51.036Z,67.87
2018-02-20T00:28:19.838Z,67.55
2018-02-20T00:30:48.728Z,67.43
2018-02-20T00:33:17.809Z,67.01
2018-02-20T00:35:46.916Z,67.10
2018-02-20T00:38:15.756Z,66.99
2018-02-20T00:40:44.589Z,67.01
2018-02-20T00:43:13.379Z,66.86
2018-02-20T00:45:42.245Z,67.02
2018-02-20T00:48:11.411Z,66.87
2018-02-20T00:50:40.242Z,66.99
2018-02-20T00:53:09.474Z,67.02
2018-02-20T00:55:38.288Z,66.93
2018-02-20T00:58:07.215Z,66.88
2018-02-20T01:00:36.364Z,66.76
2018-02-20T01:03:05.875Z,66.55
2018-02-20T01:05:35.032Z,66.46
2018-02-20T01:08:03.885Z,66.31
2018-02-20T01:10:32.705Z,66.40
2018-02-20T01:13:01.503Z,66.42
2018-02-20T01:15:30.629Z,66.05
2018-02-20T01:17:59.449Z,65.85
2018-02-20T01:20:28.541Z,65.86
2018-02-20T01:22:57.377Z,65.95
2018-02-20T01:25:26.700Z,66.15
2018-02-20T01:27:55.868Z,66.02
2018-02-20T01:30:25.010Z,66.02
2018-02-20T01:32:54.165Z,66.11
2018-02-20T01:35:23.505Z,66.24
2018-02-20T01:37:52.635Z,66.17
2018-02-20T01:40:21.814Z,66.23
2018-02-20T01:42:51.023Z,66.11
2018-02-20T01:45:20.176Z,66.12
2018-02-20T01:47:50.607Z,66.15
2018-02-20T01:50:20.981Z,66.18
2018-02-20T01:52:51.501Z,66.20
2018-02-20T01:55:30.027Z,66.47
2018-02-20T01:57:59.143Z,66.70
2018-02-20T02:00:28.424Z,66.73
2018-02-20T02:02:57.574Z,66.93
2018-02-20T02:05:27.207Z,66.89
2018-02-20T02:07:57.928Z,66.71
2018-02-20T02:10:27.720Z,66.70
2018-02-20T02:12:58.345Z,66.37
2018-02-20T02:15:29.147Z,65.97
2018-02-20T02:18:01.600Z,66.18
2018-02-20T02:20:32.104Z,66.30
2018-02-20T02:23:02.749Z,66.03
2018-02-20T02:25:33.345Z,66.02
2018-02-20T02:28:05.199Z,66.18
2018-02-20T02:30:35.564Z,66.52
2018-02-20T02:33:06.193Z,66.71
2018-02-20T02:35:37.472Z,66.73
2018-02-20T02:38:08.234Z,67.36
2018-02-20T02:40:38.726Z,67.44
2018-02-20T02:43:09.404Z,67.06
2018-02-20T02:45:40.642Z,67.89
2018-02-20T02:48:12.110Z,67.91
2018-02-20T02:50:42.655Z,67.45
2018-02-20T02:53:13.980Z,67.47
2018-02-20T02:55:45.317Z,68.26
2018-02-20T02:58:16.015Z,68.31
2018-02-20T03:00:46.562Z,69.23
2018-02-20T03:03:17.923Z,69.55
2018-02-20T03:05:48.247Z,70.48
2018-02-20T03:08:19.008Z,70.27
2018-02-20T03:10:49.507Z,70.60
2018-02-20T03:13:22.061Z,69.78
2018-02-20T03:15:52.427Z,70.78
2018-02-20T03:18:23.318Z,69.89
2018-02-20T03:20:53.668Z,70.61
2018-02-20T03:23:24.272Z,71.11
2018-02-20T03:25:55.736Z,71.38
2018-02-20T03:28:26.049Z,70.71
2018-02-20T03:30:57.900Z,70.63
2018-02-20T03:33:28.447Z,70.16
2018-02-20T03:35:59.313Z,70.36
2018-02-20T03:38:29.895Z,70.22
2018-02-20T03:41:00.463Z,69.44
2018-02-20T03:43:31.067Z,69.10
2018-02-20T03:46:01.298Z,69.77
2018-02-20T03:48:32.258Z,69.34
2018-02-20T03:51:03.478Z,69.36
2018-02-20T03:53:34.959Z,69.67
2018-02-20T03:56:05.443Z,69.91
2018-02-20T03:58:36.242Z,69.21
2018-02-20T04:01:06.389Z,69.58
2018-02-20T04:03:37.861Z,69.85
2018-02-20T04:06:08.573Z,69.46
2018-02-20T04:08:39.219Z,70.02
2018-02-20T04:11:11.148Z,69.76
2018-02-20T04:13:40.967Z,69.63
2018-02-20T04:16:12.088Z,69.86
2018-02-20T04:18:43.257Z,69.84
2018-02-20T04:21:14.867Z,70.06
2018-02-20T04:23:45.400Z,70.22
2018-02-20T04:26:15.983Z,70.21
2018-02-20T04:28:47.041Z,70.24
2018-02-20T04:31:18.598Z,70.38
2018-02-20T04:33:49.148Z,70.44
2018-02-20T04:36:19.612Z,70.50
2018-02-20T04:38:50.784Z,70.64
2018-02-20T04:41:21.188Z,70.49
2018-02-20T04:43:52.084Z,70.54
2018-02-20T04:46:23.987Z,70.37
2018-02-20T04:48:54.401Z,70.37
2018-02-20T04:51:25.888Z,70.69
2018-02-20T04:53:57.139Z,70.80
2018-02-20T04:56:26.781Z,70.60
2018-02-20T04:58:57.643Z,70.58
2018-02-20T05:01:28.850Z,70.80
2018-02-20T05:04:00.415Z,70.79
2018-02-20T05:09:08.941Z,70.70
2018-02-20T05:11:38.039Z,71.10
2018-02-20T05:14:07.127Z,70.79
2018-02-20T05:16:39.467Z,70.97
2018-02-20T05:19:08.558Z,70.81
2018-02-20T05:21:37.652Z,70.57
2018-02-20T05:24:08.120Z,70.36
2018-02-20T05:26:38.326Z,70.56
2018-02-20T05:29:09.327Z,70.56
2018-02-20T05:31:39.796Z,70.39
2018-02-20T05:34:11.460Z,70.63
2018-02-20T05:36:42.871Z,70.47
2018-02-20T05:39:13.727Z,70.90
2018-02-20T05:41:43.248Z,70.63
2018-02-20T05:44:14.700Z,70.80
2018-02-20T05:46:45.257Z,71.12
2018-02-20T05:49:16.041Z,71.07
2018-02-20T05:51:46.909Z,71.45
2018-02-20T05:54:17.121Z,71.53
2018-02-20T05:56:47.512Z,71.29
2018-02-20T05:59:18.461Z,72.05
2018-02-20T06:01:51.879Z,72.46
2018-02-20T06:04:21.454Z,72.05
2018-02-20T06:06:51.587Z,72.02
2018-02-20T06:09:22.583Z,72.41
2018-02-20T06:11:52.995Z,72.27
2018-02-20T06:14:23.968Z,72.47
2018-02-20T06:16:54.862Z,72.07
2018-02-20T06:19:26.432Z,71.55
2018-02-20T06:21:57.962Z,71.09
2018-02-20T06:24:29.506Z,71.31
2018-02-20T06:26:59.328Z,71.19
2018-02-20T06:29:30.017Z,71.61
2018-02-20T06:32:00.535Z,71.27
2018-02-20T06:34:31.075Z,71.36
2018-02-20T06:37:01.946Z,71.62
2018-02-20T06:39:32.651Z,71.41
2018-02-20T06:42:04.079Z,71.04
2018-02-20T06:44:35.067Z,70.55
2018-02-20T06:47:05.692Z,71.00
2018-02-20T06:49:36.579Z,71.16
2018-02-20T06:52:07.100Z,70.45
2018-02-20T06:54:37.926Z,71.20
2018-02-20T06:57:08.763Z,71.64
2018-02-20T06:59:39.711Z,71.30
2018-02-20T07:02:10.611Z,71.21
2018-02-20T07:04:42.039Z,70.90
2018-02-20T07:07:12.938Z,70.82
2018-02-20T07:09:44.000Z,71.19
2018-02-20T07:12:14.836Z,70.83
2018-02-20T07:14:45.621Z,71.28
2018-02-20T07:17:15.968Z,71.32
2018-02-20T07:19:46.927Z,70.52
2018-02-20T07:22:17.775Z,70.69
2018-02-20T07:24:48.692Z,71.15
2018-02-20T07:27:19.285Z,71.05
2018-02-20T07:29:50.904Z,70.43
2018-02-20T07:32:21.755Z,71.26
2018-02-20T07:34:52.086Z,70.77
2018-02-20T07:37:22.515Z,71.42
2018-02-20T07:39:53.283Z,71.74
2018-02-20T07:42:24.195Z,71.80
2018-02-20T07:44:55.185Z,70.99
2018-02-20T07:47:26.423Z,71.06
2018-02-20T07:49:57.473Z,70.94
2018-02-20T07:52:27.144Z,71.45
2018-02-20T07:54:58.808Z,71.31
2018-02-20T07:57:29.332Z,71.07
2018-02-20T08:00:00.197Z,71.22
2018-02-20T08:02:31.475Z,71.36
2018-02-20T08:05:02.312Z,71.36
2018-02-20T08:07:33.203Z,71.02
2018-02-20T08:10:04.238Z,71.05
2018-02-20T08:12:34.817Z,70.54
2018-02-20T08:15:06.480Z,70.30
2018-02-20T08:17:37.904Z,69.97
2018-02-20T08:20:08.799Z,69.38
2018-02-20T08:22:39.647Z,69.35
2018-02-20T08:25:10.629Z,69.44
2018-02-20T08:27:42.465Z,69.25
2018-02-20T08:30:12.911Z,68.62
2018-02-20T08:32:43.739Z,68.48
2018-02-20T08:35:14.689Z,68.80
2018-02-20T08:37:45.560Z,67.88
2018-02-20T08:40:16.943Z,67.40
2018-02-20T08:42:47.789Z,67.58
2018-02-20T08:45:18.693Z,67.61
2018-02-20T08:47:49.556Z,67.13
2018-02-20T08:50:20.903Z,66.99
2018-02-20T08:52:51.771Z,66.67
2018-02-20T08:55:22.649Z,66.38
2018-02-20T08:57:53.896Z,65.99
2018-02-20T09:00:24.804Z,65.97
2018-02-20T09:02:55.614Z,65.50
2018-02-20T09:05:26.983Z,65.22
2018-02-20T09:07:57.721Z,65.02
2018-02-20T09:10:28.687Z,64.79
2018-02-20T09:12:59.182Z,64.20
2018-02-20T09:15:29.912Z,64.14
2018-02-20T09:18:00.733Z,64.12
2018-02-20T09:20:31.685Z,63.79
2018-02-20T09:23:03.034Z,63.50
2018-02-20T09:25:33.989Z,63.44
2018-02-20T09:28:04.807Z,63.14
2018-02-20T09:30:35.681Z,62.62
2018-02-20T09:33:07.096Z,70.57
2018-02-20T09:35:37.860Z,71.14
2018-02-20T09:38:08.171Z,68.56
2018-02-20T09:40:38.618Z,59.81
2018-02-20T09:43:09.184Z,59.22
2018-02-20T09:45:40.658Z,58.99
2018-02-20T09:48:11.953Z,58.88
2018-02-20T09:50:43.484Z,58.07
2018-02-20T09:53:14.257Z,59.20
2018-02-20T09:55:45.191Z,58.37
2018-02-20T09:58:14.756Z,58.25
2018-02-20T10:00:45.279Z,58.12
2018-02-20T10:03:16.846Z,58.45
2018-02-20T10:05:47.733Z,58.39
2018-02-20T10:08:21.911Z,58.17
2018-02-20T10:10:51.509Z,58.27
2018-02-20T10:13:21.155Z,58.17
2018-02-20T10:15:52.866Z,58.85
2018-02-20T10:18:23.368Z,58.93
2018-02-20T10:20:54.042Z,59.31
2018-02-20T10:23:24.834Z,58.41
2018-02-20T10:25:56.258Z,58.33
2018-02-20T10:28:27.003Z,58.77
2018-02-20T10:30:57.915Z,58.73
2018-02-20T10:33:29.157Z,57.48
2018-02-20T10:35:59.856Z,55.26
2018-02-20T10:38:30.700Z,54.45
2018-02-20T10:41:01.080Z,55.08
2018-02-20T10:43:31.536Z,55.18
2018-02-20T10:46:02.243Z,55.05
2018-02-20T10:48:33.117Z,55.02
2018-02-20T10:51:03.868Z,55.21
2018-02-20T10:53:34.378Z,55.27
2018-02-20T10:56:04.152Z,54.82
2018-02-20T10:58:34.780Z,54.97
2018-02-20T11:01:06.057Z,55.00
2018-02-20T11:03:39.160Z,55.00
2018-02-20T11:06:09.694Z,54.22
2018-02-20T11:08:40.506Z,52.57
2018-02-20T11:11:11.152Z,52.96
2018-02-20T11:13:42.380Z,52.84
2018-02-20T11:16:13.230Z,52.82
2018-02-20T11:18:44.111Z,53.11
2018-02-20T11:21:14.582Z,53.28
2018-02-20T11:23:45.189Z,51.89
2018-02-20T11:26:16.469Z,52.72
2018-02-20T11:28:47.107Z,51.07
2018-02-20T11:31:18.463Z,51.38
2018-02-20T11:33:49.831Z,50.77
2018-02-20T11:36:20.717Z,49.57
2018-02-20T11:38:51.608Z,49.68
2018-02-20T11:41:26.277Z,49.83
2018-02-20T11:43:55.369Z,48.35
2018-02-20T11:46:25.221Z,47.62
2018-02-20T11:48:55.953Z,48.06
2018-02-20T11:51:27.346Z,47.16
2018-02-20T11:53:57.996Z,47.31
2018-02-20T11:56:28.841Z,46.67
2018-02-20T11:58:59.720Z,47.04
2018-02-20T12:01:30.761Z,46.17
2018-02-20T12:04:01.320Z,45.45
2018-02-20T12:06:31.509Z,44.24
2018-02-20T12:09:02.061Z,44.65
2018-02-20T12:11:32.848Z,44.62
2018-02-20T12:14:03.806Z,44.34
2018-02-20T12:16:34.806Z,44.89
2018-02-20T12:19:05.620Z,44.50
2018-02-20T12:21:36.171Z,43.56
2018-02-20T12:24:06.824Z,43.92
2018-02-20T12:26:37.303Z,43.63
2018-02-20T12:29:07.946Z,43.17
2018-02-20T12:31:38.737Z,42.83
2018-02-20T12:34:09.616Z,41.82
2018-02-20T12:36:40.568Z,41.80
2018-02-20T12:39:11.928Z,42.28
2018-02-20T12:41:42.777Z,42.18
2018-02-20T12:44:13.728Z,41.26
2018-02-20T12:46:44.520Z,41.67
2018-02-20T12:49:15.887Z,41.81
2018-02-20T12:51:46.704Z,41.21
2018-02-20T12:54:17.636Z,41.62
2018-02-20T12:56:48.960Z,41.89
2018-02-20T12:59:19.833Z,41.28
2018-02-20T13:01:50.958Z,41.89
2018-02-20T13:04:21.847Z,42.03
2018-02-20T13:06:52.748Z,42.17
2018-02-20T13:09:23.288Z,42.60
2018-02-20T13:11:53.887Z,42.33
2018-02-20T13:14:24.758Z,42.44
2018-02-20T13:16:55.593Z,42.23
2018-02-20T13:19:26.925Z,42.62
2018-02-20T13:21:57.388Z,43.25
2018-02-20T13:24:27.800Z,43.50
2018-02-20T13:26:58.342Z,43.73
2018-02-20T13:29:29.002Z,44.05
2018-02-20T13:31:59.832Z,44.06
2018-02-20T13:34:30.759Z,44.31
2018-02-20T13:37:01.616Z,44.36
2018-02-20T13:39:32.598Z,44.38
2018-02-20T13:42:03.879Z,44.92
2018-02-20T13:44:39.966Z,44.32
2018-02-20T13:47:09.061Z,44.58
2018-02-20T13:49:38.186Z,44.48
2018-02-20T13:52:08.755Z,44.74
2018-02-20T13:54:39.199Z,44.35
2018-02-20T13:57:09.898Z,44.23
2018-02-20T13:59:41.090Z,44.03
2018-02-20T14:02:11.911Z,44.56
2018-02-20T14:04:43.143Z,43.67
2018-02-20T14:07:13.664Z,43.88
2018-02-20T14:09:44.123Z,43.02
2018-02-20T14:12:14.992Z,42.94
2018-02-20T14:14:45.807Z,42.85
2018-02-20T14:17:16.692Z,43.43
2018-02-20T14:19:47.723Z,43.25
2018-02-20T14:22:19.264Z,42.90
2018-02-20T14:24:50.233Z,42.58
2018-02-20T14:27:20.868Z,41.76
2018-02-20T14:29:51.797Z,42.76
2018-02-20T14:32:22.703Z,42.76
2018-02-20T14:34:53.652Z,42.81
2018-02-20T14:37:24.517Z,42.10
2018-02-20T14:40:08.763Z,41.55
2018-02-20T14:42:38.266Z,41.39
2018-02-20T14:45:07.376Z,41.54
2018-02-20T14:47:36.522Z,41.85
2018-02-20T14:50:05.631Z,42.38
2018-02-20T14:52:34.742Z,48.33
2018-02-20T14:55:03.983Z,45.14
2018-02-20T14:57:33.096Z,42.75
2018-02-20T15:00:03.677Z,42.51
2018-02-20T15:02:34.209Z,42.58
2018-02-20T15:05:04.952Z,43.02
2018-02-20T15:07:35.818Z,43.59
2018-02-20T15:10:06.698Z,44.06
2018-02-20T15:12:37.576Z,43.56
2018-02-20T15:15:08.540Z,44.29
2018-02-20T15:17:38.899Z,44.68
2018-02-20T15:20:09.813Z,44.72
2018-02-20T15:22:40.665Z,44.81
2018-02-20T15:25:12.048Z,45.22
2018-02-20T15:27:42.939Z,45.45
2018-02-20T15:30:13.812Z,45.67
2018-02-20T15:32:44.676Z,46.35
2018-02-20T15:35:15.868Z,46.25
2018-02-20T15:37:46.797Z,45.81
2018-02-20T15:40:17.665Z,46.20
2018-02-20T15:42:48.677Z,46.44
2018-02-20T15:45:19.689Z,47.18
2018-02-20T15:47:50.501Z,47.17
2018-02-20T15:50:21.876Z,47.72
2018-02-20T15:52:52.654Z,47.76
2018-02-20T15:55:23.092Z,47.53
2018-02-20T15:57:53.826Z,47.97
2018-02-20T16:00:24.728Z,48.04
2018-02-20T16:02:55.557Z,48.45
2018-02-20T16:05:27.025Z,48.63
2018-02-20T16:07:57.699Z,48.96
2018-02-20T16:10:28.652Z,49.06
2018-02-20T16:12:59.501Z,49.06
2018-02-20T16:15:29.633Z,49.28
2018-02-20T16:18:00.912Z,49.41
2018-02-20T16:20:31.799Z,49.58
2018-02-20T16:23:03.335Z,49.76
2018-02-20T16:25:33.826Z,49.75
2018-02-20T16:28:04.309Z,50.08
2018-02-20T16:30:34.966Z,50.14
2018-02-20T16:33:05.832Z,50.46
2018-02-20T16:35:36.906Z,50.64
2018-02-20T16:38:07.413Z,50.74
2018-02-20T16:40:37.960Z,50.94
2018-02-20T16:43:08.871Z,51.09
2018-02-20T16:45:39.845Z,51.13
2018-02-20T16:48:10.709Z,51.24
2018-02-20T16:50:41.699Z,51.33
2018-02-20T16:53:12.574Z,51.40
2018-02-20T16:55:43.969Z,51.51
2018-02-20T16:58:14.799Z,51.56
2018-02-20T17:00:45.442Z,51.62
2018-02-20T17:03:17.197Z,51.72
2018-02-20T17:05:47.967Z,51.81
2018-02-20T17:08:18.545Z,51.88
2018-02-20T17:10:49.004Z,51.99
2018-02-20T17:13:19.896Z,52.18
2018-02-20T17:15:50.792Z,52.42
2018-02-20T17:18:21.713Z,52.59
2018-02-20T17:20:52.721Z,52.76
2018-02-20T17:23:23.582Z,53.01
2018-02-20T17:25:55.040Z,53.18
2018-02-20T17:28:25.894Z,53.32
2018-02-20T17:30:56.830Z,53.48
2018-02-20T17:33:27.993Z,53.71
2018-02-20T17:35:58.940Z,53.87
2018-02-20T17:38:29.452Z,54.27
2018-02-20T17:41:00.178Z,54.37
2018-02-20T17:43:31.128Z,54.43
2018-02-20T17:46:02.004Z,54.55
2018-02-20T17:48:33.110Z,54.74
2018-02-20T17:51:06.842Z,55.15
2018-02-20T17:53:36.157Z,55.04
2018-02-20T17:56:06.516Z,55.27
2018-02-20T17:58:37.116Z,55.26
2018-02-20T18:01:07.588Z,55.84
2018-02-20T18:03:38.052Z,55.57
2018-02-20T18:06:08.901Z,55.55
2018-02-20T18:08:39.748Z,55.63
2018-02-20T18:11:12.109Z,55.57
2018-02-20T18:13:41.915Z,55.61
2018-02-20T18:16:12.487Z,55.64
2018-02-20T18:18:42.956Z,55.72
2018-02-20T18:21:14.248Z,55.81
2018-02-20T18:23:45.193Z,55.86
2018-02-20T18:26:16.804Z,55.89
2018-02-20T18:28:47.500Z,56.12
2018-02-20T18:31:18.436Z,56.19
2018-02-20T18:33:48.943Z,56.16
2018-02-20T18:36:19.936Z,56.15
2018-02-20T18:38:49.709Z,56.20
2018-02-20T18:41:20.795Z,56.31
2018-02-20T18:43:51.745Z,56.30
2018-02-20T18:46:22.723Z,56.36
2018-02-20T18:48:53.218Z,56.46
2018-02-20T18:51:24.509Z,56.58
2018-02-20T18:53:54.951Z,56.79
2018-02-20T18:56:25.589Z,56.89
2018-02-20T18:58:55.986Z,56.91
2018-02-20T19:01:26.613Z,57.04
2018-02-20T19:03:59.527Z,57.11
2018-02-20T19:06:29.444Z,57.24
2018-02-20T19:08:59.337Z,57.30
2018-02-20T19:11:29.913Z,57.32
2018-02-20T19:14:00.828Z,57.45
2018-02-20T19:16:32.588Z,57.47
2018-02-20T19:19:02.260Z,57.59
2018-02-20T19:21:33.497Z,57.87
2018-02-20T19:24:03.698Z,58.13
2018-02-20T19:26:34.278Z,58.23
2018-02-20T19:29:04.448Z,58.40
2018-02-20T19:31:34.352Z,58.65
2018-02-20T19:34:05.786Z,58.71
2018-02-20T19:36:36.464Z,58.86
2018-02-20T19:39:06.962Z,59.09
2018-02-20T19:41:37.572Z,59.10
2018-02-20T19:44:08.029Z,59.01
2018-02-20T19:46:39.031Z,58.91
2018-02-20T19:49:09.903Z,59.15
2018-02-20T19:51:40.913Z,59.17
2018-02-20T19:54:11.468Z,59.23
2018-02-20T19:56:42.049Z,59.58
2018-02-20T19:59:12.427Z,59.43
2018-02-20T20:01:43.059Z,59.69
2018-02-20T20:04:13.905Z,59.49
2018-02-20T20:06:44.800Z,59.55
2018-02-20T20:09:15.199Z,59.35
2018-02-20T20:11:46.003Z,59.81
2018-02-20T20:14:16.864Z,59.67
2018-02-20T20:16:47.878Z,59.67
2018-02-20T20:19:19.225Z,59.84
2018-02-20T20:21:49.964Z,60.03
2018-02-20T20:24:20.882Z,60.37
2018-02-20T20:26:51.500Z,60.38
2018-02-20T20:29:23.120Z,60.47
2018-02-20T20:31:53.699Z,60.01
2018-02-20T20:34:24.275Z,60.11
2018-02-20T20:36:54.924Z,60.85
2018-02-20T20:39:25.792Z,60.81
2018-02-20T20:41:56.759Z,60.69
2018-02-20T20:44:28.123Z,61.06
2018-02-20T20:46:59.284Z,61.15
2018-02-20T20:49:29.978Z,61.29
2018-02-20T20:52:00.944Z,61.60
2018-02-20T20:54:32.179Z,62.13
2018-02-20T20:57:04.989Z,61.72
2018-02-20T20:59:34.169Z,61.94
2018-02-20T21:02:04.099Z,62.62
2018-02-20T21:04:35.031Z,62.23
2018-02-20T21:07:05.860Z,62.27
2018-02-20T21:09:36.763Z,62.92
2018-02-20T21:12:07.657Z,62.62
2018-02-20T21:14:39.027Z,62.91
2018-02-20T21:17:08.973Z,62.66
2018-02-20T21:19:39.571Z,62.96
2018-02-20T21:22:10.191Z,63.02
2018-02-20T21:24:41.484Z,63.19
2018-02-20T21:27:12.857Z,63.32
2018-02-20T21:29:43.784Z,63.44
2018-02-20T21:32:14.612Z,63.38
2018-02-20T21:34:45.951Z,63.92
2018-02-20T21:37:16.785Z,64.09
2018-02-20T21:39:47.680Z,63.90
2018-02-20T21:42:18.547Z,63.98
2018-02-20T21:44:49.888Z,63.90
2018-02-20T21:47:20.716Z,64.07
2018-02-20T21:49:51.651Z,63.88
2018-02-20T21:52:22.571Z,63.96
2018-02-20T21:54:53.974Z,63.97
2018-02-20T21:57:24.804Z,64.12
2018-02-20T21:59:55.705Z,63.96
2018-02-20T22:02:26.572Z,64.33
2018-02-20T22:04:58.044Z,64.59
2018-02-20T22:07:28.808Z,64.60
2018-02-20T22:09:59.245Z,64.61
2018-02-20T22:12:29.823Z,64.76
2018-02-20T22:15:00.782Z,64.76
2018-02-20T22:17:31.288Z,64.44
2018-02-20T22:20:02.032Z,64.65
2018-02-20T22:22:32.908Z,64.96
2018-02-20T22:25:03.491Z,64.87
2018-02-20T22:27:33.999Z,64.88
2018-02-20T22:30:04.945Z,64.77
2018-02-20T22:32:35.880Z,64.89
2018-02-20T22:35:06.799Z,64.93
2018-02-20T22:37:37.300Z,64.91
2018-02-20T22:40:07.936Z,65.17
2018-02-20T22:42:38.792Z,65.16
2018-02-20T22:45:09.767Z,65.36
2018-02-20T22:47:41.224Z,65.21
2018-02-20T22:50:11.583Z,65.57
2018-02-20T22:52:42.108Z,65.13
2018-02-20T22:55:12.889Z,65.41
2018-02-20T22:57:43.352Z,65.32
2018-02-20T23:00:14.014Z,65.46
2018-02-20T23:02:44.900Z,65.98
2018-02-20T23:05:15.869Z,65.87
2018-02-20T23:07:46.691Z,65.62
2018-02-20T23:10:17.645Z,65.64
2018-02-20T23:12:48.513Z,65.70
2018-02-20T23:15:19.956Z,65.60
2018-02-20T23:17:50.792Z,65.60
2018-02-20T23:20:21.675Z,65.77
2018-02-20T23:22:52.940Z,65.90
2018-02-20T23:25:25.046Z,65.68
2018-02-20T23:27:55.763Z,65.89
2018-02-20T23:30:26.283Z,65.74
2018-02-20T23:32:56.854Z,65.65
2018-02-20T23:35:27.447Z,65.70
2018-02-20T23:37:57.891Z,65.85
2018-02-20T23:40:28.837Z,65.84
2018-02-20T23:42:59.678Z,65.95
2018-02-20T23:45:30.945Z,65.89
2018-02-20T23:48:01.784Z,66.03
2018-02-20T23:50:32.668Z,66.06
2018-02-20T23:53:03.911Z,66.17
2018-02-20T23:55:34.803Z,66.24
2018-02-20T23:58:05.650Z,66.11
